Time;durP1;ratioP1;P1;durP2;ratioP2;P2;SDS_P1;SDS_P2;PMS_P1;PMS_P2;Temp;Humidity;BMP_temperature;BMP_pressure;BME280_temperature;BME280_humidity;BME280_pressure;Samples;Min_cycle;Max_cycle;Signal;HPM_P1;HPM_P2
2024/04/14 00:02:12;;;;;;;14.57;4.82;;;;;;;13.19;100.00;101413.06;5407450;26;19997;-73
2024/04/14 00:04:38;;;;;;;11.45;4.78;;;;;;;13.26;100.00;101418.34;5461078;26;20450;-73
2024/04/14 00:07:11;;;;;;;13.00;4.88;;;;;;;13.19;100.00;101411.09;5492414;26;19998;-73
2024/04/14 00:09:36;;;;;;;14.05;6.63;;;;;;;13.16;100.00;101419.22;5530207;26;20006;-73
2024/04/14 00:12:02;;;;;;;12.52;6.25;;;;;;;13.07;100.00;101420.97;5436837;26;20061;-73
2024/04/14 00:14:27;;;;;;;11.40;5.57;;;;;;;13.10;100.00;101424.00;5437199;26;20342;-73
2024/04/14 00:16:53;;;;;;;14.90;6.63;;;;;;;12.92;100.00;101419.09;5436606;26;20017;-73
2024/04/14 00:19:20;;;;;;;11.90;4.75;;;;;;;12.91;100.00;101426.63;5467076;26;20002;-73
2024/04/14 00:21:46;;;;;;;14.48;5.63;;;;;;;12.89;100.00;101420.50;5496860;26;20065;-73
2024/04/14 00:24:12;;;;;;;13.52;5.68;;;;;;;12.80;100.00;101413.03;5466994;26;20017;-73
2024/04/14 00:26:38;;;;;;;11.05;4.80;;;;;;;12.83;100.00;101409.69;5406474;26;20009;-73
2024/04/14 00:29:04;;;;;;;9.32;3.63;;;;;;;12.84;100.00;101412.19;5437121;26;20014;-73
2024/04/14 00:31:29;;;;;;;10.32;4.22;;;;;;;12.80;100.00;101419.44;5466289;26;20034;-73
2024/04/14 00:33:55;;;;;;;9.07;3.88;;;;;;;12.79;100.00;101406.63;5436740;26;20497;-73
2024/04/14 00:36:20;;;;;;;11.07;3.60;;;;;;;12.86;100.00;101403.53;5436574;26;20016;-73
2024/04/14 00:38:46;;;;;;;9.23;3.78;;;;;;;12.73;100.00;101402.19;5436830;26;20019;-73
2024/04/14 00:41:11;;;;;;;10.68;4.03;;;;;;;12.65;100.00;101403.66;5466650;26;20001;-73
2024/04/14 00:43:37;;;;;;;9.35;3.28;;;;;;;12.46;100.00;101405.41;5408684;26;20033;-73
2024/04/14 00:46:02;;;;;;;6.30;3.15;;;;;;;12.52;100.00;101407.88;5466316;26;20016;-73
2024/04/14 00:48:28;;;;;;;6.82;3.20;;;;;;;12.37;100.00;101401.50;5496887;26;20005;-73
2024/04/14 00:50:53;;;;;;;6.22;2.80;;;;;;;12.30;100.00;101399.88;5466342;26;20014;-73
2024/04/14 00:53:19;;;;;;;8.13;2.50;;;;;;;12.46;100.00;101395.09;5466774;26;20005;-73
2024/04/14 00:55:45;;;;;;;10.63;2.70;;;;;;;12.48;100.00;101392.00;5490530;26;20006;-73
2024/04/14 00:58:10;;;;;;;3.92;2.00;;;;;;;12.49;100.00;101388.13;5485377;26;20015;-73
2024/04/14 01:00:36;;;;;;;7.75;2.75;;;;;;;12.49;100.00;101386.16;5430470;26;20013;-73
2024/04/14 01:03:02;;;;;;;7.32;2.50;;;;;;;12.47;100.00;101379.19;5480825;26;19997;-73
2024/04/14 01:05:27;;;;;;;3.60;1.95;;;;;;;12.52;100.00;101381.97;5464653;26;20002;-73
2024/04/14 01:07:53;;;;;;;5.63;2.05;;;;;;;12.59;100.00;101388.06;5490454;26;20002;-73
2024/04/14 01:10:18;;;;;;;6.38;1.70;;;;;;;12.65;100.00;101389.72;5492356;26;20012;-73
2024/04/14 01:12:44;;;;;;;5.10;2.47;;;;;;;12.50;100.00;101382.25;5466381;26;20001;-73
2024/04/14 01:15:09;;;;;;;5.15;2.10;;;;;;;12.53;100.00;101390.03;5466064;26;20009;-73
2024/04/14 01:17:35;;;;;;;3.88;1.80;;;;;;;12.63;100.00;101385.53;5466552;26;20026;-73
2024/04/14 01:20:00;;;;;;;7.22;2.20;;;;;;;12.62;100.00;101384.72;5435060;26;19998;-73
2024/04/14 01:22:26;;;;;;;4.35;1.77;;;;;;;12.68;100.00;101385.53;5465484;26;20015;-73
2024/04/14 01:25:06;;;;;;;3.83;1.58;;;;;;;12.74;100.00;101385.19;5433866;26;20351;-73
2024/04/14 01:27:33;;;;;;;5.72;2.20;;;;;;;12.78;100.00;101387.41;5467158;26;20005;-73
2024/04/14 01:29:58;;;;;;;3.03;1.75;;;;;;;12.69;100.00;101388.00;5495493;26;20005;-73
2024/04/14 01:32:23;;;;;;;3.13;2.30;;;;;;;12.64;100.00;101385.22;5408554;26;20013;-73
2024/04/14 01:34:49;;;;;;;4.22;2.08;;;;;;;12.55;100.00;101386.97;5463688;26;20015;-73
2024/04/14 01:37:14;;;;;;;4.03;2.15;;;;;;;12.63;100.00;101380.78;5462702;26;19998;-73
2024/04/14 01:39:40;;;;;;;3.70;1.55;;;;;;;12.64;100.00;101392.78;5495669;26;20009;-73
2024/04/14 01:42:05;;;;;;;4.45;2.08;;;;;;;12.56;100.00;101391.41;5444170;26;20002;-73
2024/04/14 01:44:31;;;;;;;2.58;1.67;;;;;;;12.49;100.00;101385.31;5483958;26;20017;-73
2024/04/14 01:46:56;;;;;;;4.90;2.10;;;;;;;12.46;100.00;101388.69;5451940;26;19997;-73
2024/04/14 01:49:22;;;;;;;4.00;2.33;;;;;;;12.39;100.00;101396.50;5443306;26;20016;-73
2024/04/14 01:51:48;;;;;;;5.47;2.80;;;;;;;12.33;100.00;101392.06;5411940;26;20331;-73
2024/04/14 01:54:13;;;;;;;4.88;2.78;;;;;;;12.25;100.00;101391.53;5434595;26;20012;-73
2024/04/14 01:56:39;;;;;;;4.00;2.30;;;;;;;12.30;100.00;101391.53;5462718;26;20007;-73
2024/04/14 01:59:04;;;;;;;4.15;2.60;;;;;;;12.27;100.00;101394.06;5498755;26;20001;-73
2024/04/14 02:01:30;;;;;;;4.30;2.80;;;;;;;12.12;100.00;101389.38;5434416;26;20453;-73
2024/04/14 02:03:55;;;;;;;6.78;2.92;;;;;;;12.08;100.00;101391.03;5427498;26;20454;-73
2024/04/14 02:06:21;;;;;;;6.43;2.50;;;;;;;12.05;100.00;101391.59;5420173;26;20013;-73
2024/04/14 02:08:51;;;;;;;6.05;2.92;;;;;;;12.00;100.00;101388.84;5417045;26;20008;-73
2024/04/14 02:11:16;;;;;;;5.97;3.25;;;;;;;11.90;100.00;101391.66;5435574;26;20001;-73
2024/04/14 02:13:42;;;;;;;5.53;3.03;;;;;;;11.94;100.00;101401.09;5492367;26;20017;-73
2024/04/14 02:16:08;;;;;;;7.43;3.10;;;;;;;12.00;100.00;101394.41;5470946;26;20330;-73
2024/04/14 02:18:34;;;;;;;4.80;2.92;;;;;;;11.98;100.00;101388.28;5434181;26;20017;-73
2024/04/14 02:20:59;;;;;;;4.85;2.55;;;;;;;11.98;100.00;101389.13;5464009;26;20394;-73
2024/04/14 02:23:26;;;;;;;6.22;3.13;;;;;;;11.97;100.00;101387.44;5470435;26;20042;-73
2024/04/14 02:25:57;;;;;;;4.15;2.55;;;;;;;12.15;100.00;101383.22;5433622;26;20013;-73
2024/04/14 02:28:22;;;;;;;4.00;1.95;;;;;;;12.22;100.00;101394.88;5471691;26;20009;-73
2024/04/14 02:30:49;;;;;;;5.72;2.30;;;;;;;12.23;100.00;101388.22;5491899;26;20511;-73
2024/04/14 02:33:15;;;;;;;5.95;2.22;;;;;;;12.23;100.00;101379.00;5493167;26;20033;-73
2024/04/14 02:35:40;;;;;;;2.85;1.50;;;;;;;12.37;100.00;101382.88;5461932;26;20071;-73
2024/04/14 02:38:06;;;;;;;3.20;1.70;;;;;;;12.42;100.00;101376.44;5494318;26;20020;-73
2024/04/14 02:40:31;;;;;;;3.03;1.40;;;;;;;12.44;100.00;101380.59;5491903;26;20001;-73
2024/04/14 02:42:57;;;;;;;2.28;1.35;;;;;;;12.49;100.00;101388.13;5428290;26;20349;-73
2024/04/14 02:45:23;;;;;;;6.07;1.70;;;;;;;12.56;100.00;101388.63;5441044;26;20025;-73
2024/04/14 02:47:48;;;;;;;3.58;1.70;;;;;;;12.55;100.00;101386.13;5385421;26;20475;-74
2024/04/14 02:50:14;;;;;;;3.70;1.42;;;;;;;12.63;100.00;101378.00;5415771;26;20517;-73
2024/04/14 02:52:40;;;;;;;3.92;1.20;;;;;;;12.67;100.00;101387.44;5434135;26;20485;-73
2024/04/14 02:55:06;;;;;;;2.70;1.17;;;;;;;12.74;100.00;101401.91;5462150;26;20433;-73
2024/04/14 02:57:32;;;;;;;2.95;1.30;;;;;;;12.77;100.00;101396.91;5422411;26;20002;-73
2024/04/14 02:59:57;;;;;;;5.70;1.85;;;;;;;12.80;100.00;101401.88;5451106;26;20021;-73
2024/04/14 03:02:23;;;;;;;3.78;1.65;;;;;;;12.83;100.00;101399.34;5432058;26;20468;-73
2024/04/14 03:04:49;;;;;;;4.40;1.58;;;;;;;12.82;100.00;101396.88;5443816;26;20055;-73
2024/04/14 03:07:14;;;;;;;5.28;2.60;;;;;;;12.63;100.00;101403.09;5487890;26;19997;-73
2024/04/14 03:09:40;;;;;;;6.60;1.90;;;;;;;12.71;100.00;101405.28;5450691;26;20041;-73
2024/04/14 03:12:06;;;;;;;4.30;1.70;;;;;;;12.57;100.00;101406.19;5462118;26;20676;-73
2024/04/14 03:14:31;;;;;;;5.55;1.55;;;;;;;12.53;100.00;101411.47;5463515;26;20469;-73
2024/04/14 03:16:56;;;;;;;6.45;1.40;;;;;;;12.54;100.00;101404.81;5431969;26;20038;-73
2024/04/14 03:19:22;;;;;;;3.67;1.50;;;;;;;12.49;100.00;101407.63;5463295;26;20001;-73
2024/04/14 03:21:48;;;;;;;5.45;1.30;;;;;;;12.52;100.00;101404.25;5431172;26;20536;-73
2024/04/14 03:24:13;;;;;;;5.13;1.55;;;;;;;12.44;100.00;101402.88;5463758;26;20002;-73
2024/04/14 03:26:39;;;;;;;5.10;1.85;;;;;;;12.32;100.00;101409.91;5462066;26;20002;-73
2024/04/14 03:29:05;;;;;;;6.18;1.55;;;;;;;12.18;100.00;101404.13;5466004;26;20073;-73
2024/04/14 03:31:30;;;;;;;5.28;1.65;;;;;;;12.24;100.00;101389.88;5490975;26;20001;-73
2024/04/14 03:33:56;;;;;;;3.75;1.15;;;;;;;12.26;100.00;101396.00;5464620;26;20017;-73
2024/04/14 03:36:21;;;;;;;4.20;1.05;;;;;;;12.30;100.00;101394.31;5494112;26;20015;-73
2024/04/14 03:38:47;;;;;;;7.07;1.35;;;;;;;12.32;100.00;101402.38;5497179;26;20002;-73
2024/04/14 03:41:13;;;;;;;6.43;1.50;;;;;;;12.24;100.00;101392.66;5449458;26;20002;-73
2024/04/14 03:43:38;;;;;;;2.92;1.00;;;;;;;12.35;100.00;101387.06;5423234;26;19997;-73
2024/04/14 03:46:04;;;;;;;4.93;1.10;;;;;;;12.29;100.00;101389.88;5442853;26;20003;-73
2024/04/14 03:48:29;;;;;;;6.65;1.27;;;;;;;12.33;100.00;101383.72;5444408;26;20343;-73
2024/04/14 03:50:55;;;;;;;7.85;1.17;;;;;;;12.37;100.00;101382.03;5435286;26;20012;-73
2024/04/14 03:53:20;;;;;;;4.90;1.00;;;;;;;12.40;100.00;101378.69;5436138;26;20010;-73
2024/04/14 03:55:47;;;;;;;4.13;0.93;;;;;;;12.33;100.00;101389.28;5465186;26;20342;-73
2024/04/14 03:58:13;;;;;;;3.78;1.38;;;;;;;12.19;100.00;101395.47;5408100;26;20018;-73
2024/04/14 04:00:38;;;;;;;4.70;1.05;;;;;;;12.17;100.00;101391.28;5461581;26;20029;-73
2024/04/14 04:03:04;;;;;;;7.07;1.30;;;;;;;12.15;100.00;101388.81;5496399;26;20398;-73
2024/04/14 04:05:30;;;;;;;5.43;1.55;;;;;;;12.00;100.00;101402.75;5473234;26;19997;-73
2024/04/14 04:07:55;;;;;;;6.50;1.35;;;;;;;11.95;100.00;101405.53;5416409;26;20002;-73
2024/04/14 04:10:21;;;;;;;5.72;1.30;;;;;;;11.90;100.00;101395.28;5429358;26;20001;-73
2024/04/14 04:12:47;;;;;;;7.32;1.70;;;;;;;11.87;100.00;101397.75;5435799;26;19993;-73
2024/04/14 04:15:13;;;;;;;7.38;1.92;;;;;;;11.64;100.00;101397.22;5465707;26;20501;-73
2024/04/14 04:17:38;;;;;;;6.80;1.52;;;;;;;11.69;100.00;101401.94;5495865;26;20065;-73
2024/04/14 04:20:04;;;;;;;4.95;1.10;;;;;;;11.78;100.00;101401.13;5452205;26;19997;-73
2024/04/14 04:22:30;;;;;;;3.45;0.80;;;;;;;11.87;100.00;101409.75;5436396;26;19997;-73
2024/04/14 04:24:55;;;;;;;4.25;1.05;;;;;;;11.80;100.00;101411.94;5435259;26;20375;-73
2024/04/14 04:27:21;;;;;;;6.60;0.90;;;;;;;11.83;100.00;101403.84;5466173;26;19998;-73
2024/04/14 04:29:46;;;;;;;5.70;1.00;;;;;;;11.86;100.00;101405.28;5435388;26;20025;-73
2024/04/14 04:32:16;;;;;;;5.75;1.23;;;;;;;11.82;100.00;101406.94;5463695;26;20001;-73
2024/04/14 04:34:42;;;;;;;9.43;1.33;;;;;;;11.84;100.00;101413.91;5484137;26;20450;-73
2024/04/14 04:37:08;;;;;;;9.05;1.67;;;;;;;11.71;100.00;101406.13;5423484;26;20042;-73
2024/04/14 04:39:33;;;;;;;5.88;1.30;;;;;;;11.82;100.00;101413.34;5434187;26;20006;-73
2024/04/14 04:41:59;;;;;;;6.30;1.30;;;;;;;11.90;100.00;101408.38;5390183;26;20153;-73
2024/04/14 04:44:24;;;;;;;3.45;0.80;;;;;;;11.97;100.00;101408.88;5451628;26;19999;-73
2024/04/14 04:46:49;;;;;;;7.55;0.98;;;;;;;11.99;100.00;101412.22;5418908;26;20009;-73
2024/04/14 04:49:15;;;;;;;4.95;1.00;;;;;;;12.00;100.00;101413.88;5431477;26;20074;-73
2024/04/14 04:51:41;;;;;;;7.47;1.13;;;;;;;12.10;100.00;101415.81;5483020;26;20459;-73
2024/04/14 04:54:06;;;;;;;4.70;1.00;;;;;;;12.17;100.00;101406.03;5417476;26;20001;-73
2024/04/14 04:56:32;;;;;;;5.35;0.93;;;;;;;12.19;100.00;101412.16;5435976;26;20008;-73
2024/04/14 04:58:58;;;;;;;2.63;0.80;;;;;;;12.22;100.00;101408.81;5467831;26;20008;-73
2024/04/14 05:01:24;;;;;;;4.05;0.95;;;;;;;12.24;100.00;101409.38;5465584;26;20065;-73
2024/04/14 05:03:50;;;;;;;4.63;1.10;;;;;;;12.26;100.00;101401.56;5458253;26;20407;-73
2024/04/14 05:06:16;;;;;;;3.88;0.80;;;;;;;12.29;100.00;101405.75;5479841;26;20069;-73
2024/04/14 05:08:41;;;;;;;6.78;1.25;;;;;;;12.27;100.00;101410.75;5494743;26;20013;-73
2024/04/14 05:11:07;;;;;;;9.57;1.38;;;;;;;12.23;100.00;101416.06;5528327;26;20002;-73
2024/04/14 05:13:32;;;;;;;5.35;0.90;;;;;;;12.26;100.00;101423.84;5462744;26;20024;-73
2024/04/14 05:15:58;;;;;;;4.50;0.80;;;;;;;12.23;100.00;101413.28;5526973;26;20478;-73
2024/04/14 05:18:23;;;;;;;6.80;1.35;;;;;;;12.15;100.00;101421.38;5494305;26;20005;-73
2024/04/14 05:20:49;;;;;;;11.60;1.45;;;;;;;12.06;100.00;101418.31;5452906;26;20002;-73
2024/04/14 05:23:14;;;;;;;4.95;1.00;;;;;;;12.12;100.00;101425.56;5464737;26;19998;-73
2024/04/14 05:25:40;;;;;;;5.00;1.17;;;;;;;12.13;100.00;101418.88;5465021;26;20037;-73
2024/04/14 05:28:06;;;;;;;7.97;1.00;;;;;;;12.17;100.00;101414.41;5434112;26;20668;-73
2024/04/14 05:30:31;;;;;;;5.28;0.93;;;;;;;12.13;100.00;101412.47;5435331;26;20027;-73
2024/04/14 05:32:57;;;;;;;5.60;0.93;;;;;;;12.14;100.00;101426.09;5461933;26;20016;-73
2024/04/14 05:35:23;;;;;;;5.47;1.05;;;;;;;12.09;100.00;101415.00;5463924;26;20006;-73
2024/04/14 05:37:48;;;;;;;2.78;0.88;;;;;;;12.10;100.00;101418.63;5456147;26;20008;-73
2024/04/14 05:40:14;;;;;;;3.88;0.70;;;;;;;12.11;100.00;101406.34;5450175;26;20033;-73
2024/04/14 05:42:40;;;;;;;7.18;1.13;;;;;;;12.17;100.00;101413.56;5419237;26;20017;-73
2024/04/14 05:45:08;;;;;;;5.32;1.10;;;;;;;12.22;100.00;101422.75;5445807;26;20017;-73
2024/04/14 05:47:34;;;;;;;7.40;1.35;;;;;;;12.21;100.00;101415.50;5453748;26;20350;-73
2024/04/14 05:49:59;;;;;;;6.40;1.00;;;;;;;12.15;100.00;101411.06;5420350;26;20041;-73
2024/04/14 05:52:25;;;;;;;6.57;1.08;;;;;;;12.13;100.00;101407.75;5462094;26;20009;-73
2024/04/14 05:54:50;;;;;;;5.80;1.20;;;;;;;12.14;100.00;101408.56;5513787;26;20363;-73
2024/04/14 05:57:16;;;;;;;6.55;1.20;;;;;;;12.17;100.00;101419.97;5485414;26;20016;-73
2024/04/14 05:59:44;;;;;;;7.38;1.30;;;;;;;12.17;100.00;101419.97;5418109;26;20012;-73
2024/04/14 06:02:09;;;;;;;5.13;0.98;;;;;;;12.21;100.00;101415.50;5433139;26;20013;-73
2024/04/14 06:04:35;;;;;;;6.22;1.33;;;;;;;12.25;100.00;101418.56;5416919;26;20756;-73
2024/04/14 06:07:00;;;;;;;7.65;1.23;;;;;;;12.26;100.00;101423.03;5457525;26;20029;-73
2024/04/14 06:09:26;;;;;;;7.28;1.02;;;;;;;12.29;100.00;101416.88;5418096;26;20005;-73
2024/04/14 06:11:51;;;;;;;5.38;1.15;;;;;;;12.30;100.00;101415.75;5493018;26;20009;-73
2024/04/14 06:14:17;;;;;;;9.25;1.38;;;;;;;12.33;100.00;101417.16;5526598;26;20006;-73
2024/04/14 06:16:42;;;;;;;6.22;1.40;;;;;;;12.26;100.00;101418.28;5525826;26;19998;-73
2024/04/14 06:19:08;;;;;;;6.45;1.13;;;;;;;12.29;100.00;101423.28;5419169;26;20013;-73
2024/04/14 06:21:33;;;;;;;3.05;0.90;;;;;;;12.36;100.00;101424.94;5403949;26;20002;-73
2024/04/14 06:23:59;;;;;;;7.18;1.35;;;;;;;12.36;100.00;101427.72;5405161;26;20005;-73
2024/04/14 06:26:24;;;;;;;8.45;1.65;;;;;;;12.38;100.00;101431.06;5432976;26;20010;-73
2024/04/14 06:28:50;;;;;;;4.30;0.95;;;;;;;12.40;100.00;101428.84;5464236;26;20012;-73
2024/04/14 06:31:15;;;;;;;6.65;0.95;;;;;;;12.46;100.00;101417.38;5489426;26;20045;-73
2024/04/14 06:33:41;;;;;;;10.43;1.35;;;;;;;12.43;100.00;101420.72;5494372;26;20015;-73
2024/04/14 06:36:07;;;;;;;6.75;1.25;;;;;;;12.48;100.00;101417.06;5523264;26;20005;-73
2024/04/14 06:38:33;;;;;;;9.68;1.20;;;;;;;12.51;100.00;101413.75;5434772;26;20001;-73
2024/04/14 06:40:58;;;;;;;7.50;1.30;;;;;;;12.53;100.00;101417.06;5463890;26;20017;-73
2024/04/14 06:43:24;;;;;;;7.85;1.58;;;;;;;12.56;100.00;101410.91;5400637;26;20006;-73
2024/04/14 06:45:53;;;;;;;5.72;1.10;;;;;;;12.58;100.00;101419.00;5427810;26;20330;-73
2024/04/14 06:48:21;;;;;;;7.88;1.48;;;;;;;12.56;100.00;101419.28;5430775;26;20002;-73
2024/04/14 06:50:47;;;;;;;8.40;1.30;;;;;;;12.52;100.00;101412.63;5447699;26;20470;-73
2024/04/14 06:53:13;;;;;;;7.63;1.60;;;;;;;12.53;100.00;101411.47;5449998;26;20005;-73
2024/04/14 06:55:41;;;;;;;10.10;1.48;;;;;;;12.56;100.00;101407.28;5462830;26;20017;-73
2024/04/14 06:58:06;;;;;;;9.35;1.60;;;;;;;12.53;100.00;101417.06;5438991;26;20003;-73
2024/04/14 07:00:33;;;;;;;11.32;1.80;;;;;;;12.55;100.00;101414.00;5453842;26;20350;-73
2024/04/14 07:02:58;;;;;;;6.53;1.35;;;;;;;12.52;100.00;101418.19;5434497;26;20012;-73
2024/04/14 07:05:24;;;;;;;11.20;1.45;;;;;;;12.55;100.00;101416.78;5415396;26;20002;-73
2024/04/14 07:07:49;;;;;;;9.25;1.55;;;;;;;12.62;100.00;101417.28;5418713;26;20003;-73
2024/04/14 07:10:15;;;;;;;8.80;1.50;;;;;;;12.57;100.00;101412.59;5428133;26;20012;-73
2024/04/14 07:12:41;;;;;;;9.15;1.52;;;;;;;12.64;100.00;101421.47;5455270;26;20010;-73
2024/04/14 07:15:07;;;;;;;7.57;1.58;;;;;;;12.69;100.00;101417.81;5478831;26;20013;-73
2024/04/14 07:17:33;;;;;;;10.48;1.73;;;;;;;12.69;100.00;101415.88;5491675;26;20015;-73
2024/04/14 07:19:58;;;;;;;7.00;1.20;;;;;;;12.79;100.00;101419.72;5476967;26;20002;-73
2024/04/14 07:22:24;;;;;;;7.65;1.40;;;;;;;12.87;100.00;101416.31;5490142;26;20005;-73
2024/04/14 07:24:49;;;;;;;11.90;1.70;;;;;;;12.81;100.00;101417.47;5429872;26;20338;-73
2024/04/14 07:27:15;;;;;;;10.80;1.40;;;;;;;12.89;100.00;101419.66;5401102;26;20329;-73
2024/04/14 07:29:41;;;;;;;9.18;1.80;;;;;;;12.91;100.00;101426.63;5459334;26;20051;-73
2024/04/14 07:32:06;;;;;;;10.52;1.92;;;;;;;12.97;100.00;101424.66;5489359;26;20002;-73
2024/04/14 07:34:32;;;;;;;9.20;1.75;;;;;;;13.05;100.00;101429.63;5457700;26;20017;-73
2024/04/14 07:36:59;;;;;;;9.10;1.45;;;;;;;13.11;100.00;101434.03;5410234;26;20007;-73
2024/04/14 07:39:25;;;;;;;8.45;1.98;;;;;;;13.20;100.00;101417.50;5427092;26;20447;-73
2024/04/14 07:41:50;;;;;;;15.75;2.17;;;;;;;13.22;100.00;101411.66;5443463;26;20048;-73
2024/04/14 07:44:16;;;;;;;10.43;1.70;;;;;;;13.30;100.00;101416.66;5390022;26;20009;-73
2024/04/14 07:46:42;;;;;;;6.55;1.25;;;;;;;13.40;100.00;101420.22;5386462;26;20024;-73
2024/04/14 07:49:07;;;;;;;8.00;1.58;;;;;;;13.49;100.00;101419.59;5468392;26;20002;-73
2024/04/14 07:51:33;;;;;;;10.10;1.73;;;;;;;13.49;100.00;101425.16;5440141;26;20106;-73
2024/04/14 07:53:59;;;;;;;8.73;1.25;;;;;;;13.57;100.00;101421.75;5380735;26;20008;-73
2024/04/14 07:56:24;;;;;;;8.27;1.20;;;;;;;13.65;100.00;101418.34;5384838;26;20035;-73
2024/04/14 07:58:50;;;;;;;11.30;1.80;;;;;;;13.59;100.00;101409.13;5386947;26;19998;-73
2024/04/14 08:01:15;;;;;;;9.52;1.70;;;;;;;13.71;100.00;101411.56;5423611;26;20339;-73
2024/04/14 08:03:40;;;;;;;9.45;1.48;;;;;;;13.76;100.00;101422.69;5419169;26;20006;-73
2024/04/14 08:06:06;;;;;;;9.57;1.60;;;;;;;13.87;100.00;101426.19;5362473;26;20394;-73
2024/04/14 08:08:32;;;;;;;10.88;1.60;;;;;;;13.89;100.00;101415.56;5460492;26;19998;-73
2024/04/14 08:10:57;;;;;;;12.52;1.35;;;;;;;14.00;100.00;101410.72;5430234;26;20381;-73
2024/04/14 08:13:23;;;;;;;14.38;1.98;;;;;;;14.04;100.00;101414.56;5487887;26;20016;-73
2024/04/14 08:15:48;;;;;;;9.75;1.63;;;;;;;14.04;100.00;101417.38;5458597;26;20086;-73
2024/04/14 08:18:18;;;;;;;10.00;1.50;;;;;;;14.16;100.00;101412.22;5458862;26;20037;-73
2024/04/14 08:20:44;;;;;;;10.55;1.75;;;;;;;14.22;100.00;101408.25;5405216;26;20002;-73
2024/04/14 08:23:09;;;;;;;6.85;1.38;;;;;;;14.39;100.00;101399.38;5474338;26;20010;-73
2024/04/14 08:25:38;;;;;;;8.90;1.55;;;;;;;14.49;100.00;101404.03;5454135;26;19999;-73
2024/04/14 08:28:04;;;;;;;9.38;2.08;;;;;;;14.44;100.00;101399.31;5424536;26;20006;-73
2024/04/14 08:30:29;;;;;;;8.55;1.77;;;;;;;14.46;100.00;101401.84;5489280;26;20083;-73
2024/04/14 08:32:55;;;;;;;10.85;1.70;;;;;;;14.58;100.00;101390.25;5395274;26;20058;-73
2024/04/14 08:35:20;;;;;;;8.45;1.33;;;;;;;14.62;100.00;101394.91;5423419;26;20018;-72
2024/04/14 08:37:46;;;;;;;10.20;1.70;;;;;;;14.75;100.00;101390.56;5464328;26;20002;-72
2024/04/14 08:40:12;;;;;;;12.25;2.20;;;;;;;14.81;100.00;101392.16;5429472;26;20034;-73
2024/04/14 08:42:37;;;;;;;10.57;1.33;;;;;;;14.88;100.00;101391.78;5475512;26;20013;-72
2024/04/14 08:45:03;;;;;;;9.55;1.60;;;;;;;14.91;100.00;101392.00;5440049;26;20003;-72
2024/04/14 08:47:28;;;;;;;10.77;1.92;;;;;;;14.91;100.00;101392.00;5419320;26;20478;-73
2024/04/14 08:49:54;;;;;;;8.60;1.63;;;;;;;15.10;100.00;101388.38;5424214;26;20003;-72
2024/04/14 08:52:19;;;;;;;11.13;1.45;;;;;;;15.12;100.00;101400.91;5455130;26;20034;-72
2024/04/14 08:54:44;;;;;;;11.88;1.33;;;;;;;15.19;100.00;101406.97;5428525;26;20051;-73
2024/04/14 08:57:13;;;;;;;9.15;1.45;;;;;;;15.27;100.00;101408.25;5451654;26;20043;-73
2024/04/14 09:00:17;;;;;;;10.55;1.25;;;;;;;15.41;100.00;101395.16;5411940;26;20002;-73
2024/04/14 09:02:43;;;;;;;6.38;1.67;;;;;;;15.59;100.00;101395.41;5442818;26;20000;-73
2024/04/14 09:05:11;;;;;;;7.47;1.40;;;;;;;15.73;100.00;101393.50;5417371;26;20010;-73
2024/04/14 09:07:36;;;;;;;8.07;1.50;;;;;;;15.83;100.00;101387.72;5414738;26;20004;-72
2024/04/14 09:10:04;;;;;;;10.52;1.27;;;;;;;15.96;100.00;101388.03;5373915;26;20578;-73
2024/04/14 09:12:30;;;;;;;9.82;1.40;;;;;;;16.03;100.00;101378.09;5429279;26;20009;-73
2024/04/14 09:14:55;;;;;;;11.80;1.80;;;;;;;16.20;100.00;101379.47;5462375;26;20016;-72
2024/04/14 09:17:21;;;;;;;7.97;1.75;;;;;;;16.38;100.00;101378.53;5448238;26;20002;-73
2024/04/14 09:19:46;;;;;;;7.97;1.20;;;;;;;16.54;100.00;101370.63;5479105;26;20002;-74
2024/04/14 09:22:15;;;;;;;11.70;1.63;;;;;;;16.74;100.00;101363.72;5433850;26;20001;-73
2024/04/14 09:24:41;;;;;;;9.25;1.70;;;;;;;16.82;100.00;101370.59;5432972;26;20013;-73
2024/04/14 09:27:06;;;;;;;7.40;1.45;;;;;;;16.93;100.00;101384.06;5494506;26;20017;-73
2024/04/14 09:29:36;;;;;;;7.03;1.48;;;;;;;17.02;100.00;101375.75;5403390;26;20030;-72
2024/04/14 09:32:03;;;;;;;8.93;1.63;;;;;;;17.22;100.00;101371.63;5414645;26;20006;-73
2024/04/14 09:34:28;;;;;;;7.43;1.52;;;;;;;17.36;100.00;101363.16;5465285;26;20537;-73
2024/04/14 09:36:54;;;;;;;12.73;1.50;;;;;;;17.58;100.00;101365.94;5464995;26;20041;-73
2024/04/14 09:39:19;;;;;;;9.13;2.15;;;;;;;17.71;100.00;101374.59;5463523;26;20005;-73
2024/04/14 09:41:45;;;;;;;7.25;1.50;;;;;;;17.87;100.00;101361.81;5445995;26;20014;-73
2024/04/14 09:44:11;;;;;;;10.27;1.58;;;;;;;18.00;100.00;101362.88;5391931;26;20331;-70
2024/04/14 09:46:36;;;;;;;5.57;1.48;;;;;;;18.08;100.00;101362.09;5418450;26;19997;-73
2024/04/14 09:49:02;;;;;;;8.20;1.30;;;;;;;18.23;100.00;101364.47;5471472;26;20001;-73
2024/04/14 09:51:27;;;;;;;6.10;1.05;;;;;;;18.43;100.00;101357.41;5464983;26;19997;-75
2024/04/14 09:53:53;;;;;;;9.15;1.75;;;;;;;18.51;100.00;101356.59;5432227;26;20009;-72
2024/04/14 09:56:18;;;;;;;11.23;1.50;;;;;;;18.56;99.06;101357.63;5464934;26;20001;-73
2024/04/14 09:58:44;;;;;;;8.48;1.52;;;;;;;18.70;98.80;101347.03;5431013;26;20312;-73
2024/04/14 10:01:15;;;;;;;5.70;1.67;;;;;;;18.86;96.96;101342.63;5446278;26;20471;-73
2024/04/14 10:03:41;;;;;;;9.02;1.25;;;;;;;18.88;96.11;101345.91;5477231;26;20493;-73
2024/04/14 10:06:06;;;;;;;9.15;1.63;;;;;;;19.09;94.23;101350.91;5412302;26;20016;-73
2024/04/14 10:08:33;;;;;;;8.57;1.48;;;;;;;19.10;94.13;101346.94;5348415;26;20455;-73
2024/04/14 10:11:01;;;;;;;6.05;1.40;;;;;;;19.25;93.67;101338.00;5411969;26;20387;-73
2024/04/14 10:13:26;;;;;;;10.10;2.13;;;;;;;19.29;91.24;101340.97;5453380;26;20071;-74
2024/04/14 10:15:56;;;;;;;7.18;1.05;;;;;;;19.47;92.17;101344.56;5451561;26;20459;-73
2024/04/14 10:18:27;;;;;;;10.57;1.52;;;;;;;19.56;91.63;101343.41;5429645;26;20003;-74
2024/04/14 10:20:55;;;;;;;9.35;1.83;;;;;;;19.77;91.86;101332.25;5440065;26;20090;-74
2024/04/14 10:23:21;;;;;;;10.38;2.17;;;;;;;19.95;91.86;101332.22;5464920;26;20002;-74
2024/04/14 10:25:50;;;;;;;7.82;1.20;;;;;;;20.08;89.82;101337.59;5459597;26;20017;-73
2024/04/14 10:28:18;;;;;;;6.38;1.40;;;;;;;20.21;87.71;101338.53;5488489;26;20006;-73
2024/04/14 10:30:44;;;;;;;10.00;1.40;;;;;;;20.24;87.33;101340.69;5452105;26;20004;-74
2024/04/14 10:33:21;;;;;;;6.88;1.23;;;;;;;20.27;86.42;101334.34;5465568;26;20006;-74
2024/04/14 10:35:47;;;;;;;8.63;1.65;;;;;;;20.47;86.66;101324.28;5466190;26;19997;-74
2024/04/14 10:38:22;;;;;;;10.85;1.45;;;;;;;20.67;85.57;101325.53;5495609;26;20002;-74
2024/04/14 10:40:47;;;;;;;4.78;1.30;;;;;;;20.83;85.16;101319.25;5495898;26;20023;-74
2024/04/14 10:43:13;;;;;;;6.32;1.17;;;;;;;20.91;83.96;101309.88;5405971;26;20006;-74
2024/04/14 10:45:38;;;;;;;10.32;1.55;;;;;;;21.05;82.06;101316.06;5464839;26;20092;-74
2024/04/14 10:48:04;;;;;;;9.13;1.65;;;;;;;21.05;81.83;101316.06;5435122;26;20062;-74
2024/04/14 10:50:30;;;;;;;7.38;1.35;;;;;;;21.19;80.72;101312.97;5435350;26;20005;-74
2024/04/14 10:52:56;;;;;;;6.47;1.30;;;;;;;21.34;80.51;101297.34;5405736;26;20009;-74
2024/04/14 10:55:21;;;;;;;8.27;1.38;;;;;;;21.53;79.42;101288.38;5465250;26;20081;-74
2024/04/14 10:57:47;;;;;;;7.07;1.60;;;;;;;21.50;77.19;101286.25;5435053;26;20014;-74
2024/04/14 11:00:12;;;;;;;9.95;2.08;;;;;;;21.56;78.14;101290.50;5464913;26;20016;-74
2024/04/14 11:02:37;;;;;;;11.23;3.50;;;;;;;21.54;75.54;101288.03;5464351;26;20013;-74
2024/04/14 11:05:03;;;;;;;10.85;2.85;;;;;;;21.73;77.17;101286.63;5465152;26;20005;-74
2024/04/14 11:07:29;;;;;;;14.70;5.13;;;;;;;21.73;74.72;101287.47;5458996;26;20002;-74
2024/04/14 11:09:54;;;;;;;10.10;2.50;;;;;;;21.75;74.02;101281.47;5459193;26;20002;-74
2024/04/14 11:12:20;;;;;;;10.75;2.03;;;;;;;21.70;74.26;101281.69;5487112;25;20012;-76